Latest Coastal Weather Observations for Carnarvon

IDW60701

Issued at 5:55 am WST Wednesday 22 October 2014 (issued every 10 minutes, with the page automatically refreshed every 10 minutes)

About coastal observations | Map of coastal stations | Coastal observations for WA | Marine services | Other Formats
Station Details ID: 006011 Name: CARNARVON AIRPORT Lat: -24.89 Lon: 113.67 Height: 4.0 m
Data from the previous 72 hours. | See also: Recent months at Carnarvon
Date/Time
WST
Temp

°C
Wind Pressure Rain
since 9am
mm
Weather Cloud Vis
km
Sea
Height
m
Swell
Dir
 
Speed
knots
Gust
knots
hPa Trend Height
m
Period
s
Dir
22/05:30am 20.4 SW 10 14 1017.1 - 0.0 - Partly cloudy 10 - - - -
22/05:00am 20.5 SW 10 14 1016.9 - 0.0 - Partly cloudy 10 - - - -
22/04:30am 20.6 SW 10 15 1016.7 - 0.0 - Partly cloudy 10 - - - -
22/04:00am 20.4 SW 10 13 1016.6 - 0.0 - Partly cloudy 10 - - - -
22/03:30am 20.4 SW 10 13 1016.6 - 0.0 - Partly cloudy 10 - - - -
22/03:00am 20.4 SW 10 15 1016.4 - 0.0 - Mostly cloudy 10 - - - -
22/02:30am 20.2 SW 8 12 1016.5 - 0.0 - Partly cloudy 10 - - - -
22/02:00am 20.1 SW 8 10 1016.5 - 0.0 - Partly cloudy 10 - - - -
22/01:30am 20.2 SSW 9 12 1016.6 - 0.0 - Partly cloudy 10 - - - -
22/01:00am 20.3 SW 9 12 1016.8 - 0.0 - Partly cloudy 10 - - - -
22/12:30am 20.3 SW 9 13 1016.9 - 0.0 - Partly cloudy 10 - - - -
22/12:00am 20.3 SW 11 14 1016.7 - 0.0 - - 10 - - - -
 
Date/Time
WST
Temp

°C
Wind Pressure Rain
since 9am
mm
Weather Cloud Vis
km
Sea
Height
m
Swell
Dir
 
Speed
knots
Gust
knots
hPa Trend Height
m
Period
s
Dir
21/11:30pm 20.5 SSW 11 15 1016.8 - 0.0 - Partly cloudy 10 - - - -
21/11:00pm 20.4 SSW 11 15 1016.9 - 0.0 - - 10 - - - -
21/10:30pm 20.6 SSW 13 16 1017.0 - 0.0 - Partly cloudy 10 - - - -
21/10:00pm 20.7 SW 12 16 1017.7 - 0.0 - Partly cloudy 10 - - - -
21/09:30pm 20.9 SSW 11 16 1017.9 - 0.0 - - 10 - - - -
21/09:00pm 21.0 SSW 11 14 1017.8 - 0.0 - - 10 - - - -
21/08:30pm 21.1 SW 11 15 1017.9 - 0.0 - - 10 - - - -
21/08:00pm 21.4 WSW 14 20 1017.7 - 0.0 - - 10 - - - -
21/07:30pm 21.8 WSW 15 21 1017.3 - 0.0 - - 10 - - - -
21/07:00pm 22.1 WSW 15 21 1016.8 - 0.0 - - 10 - - - -
21/06:30pm 22.4 WSW 15 18 1015.9 - 0.0 - - 10 - - - -
21/06:00pm 22.9 WSW 15 19 1015.7 - 0.0 - - 10 - - - -
21/05:30pm 23.1 WSW 14 19 1015.0 - 0.0 - - 10 - - - -
21/05:00pm 23.6 WSW 16 19 1015.0 - 0.0 - - 10 - - - -
21/04:30pm 24.1 WSW 16 20 1015.1 - 0.0 - - 10 - - - -
21/04:00pm 24.3 WSW 16 20 1015.4 - 0.0 - - 10 - - - -
21/03:30pm 23.6 WSW 18 22 1015.7 - 0.0 - - 10 - - - -
21/03:00pm 24.5 WSW 15 21 1015.9 F 0.0 Fine Mostly clear 35 - - - -
21/02:30pm 24.2 WSW 15 19 1016.1 - 0.0 - - 10 - - - -
21/02:00pm 24.7 WSW 14 17 1016.4 - 0.0 - - 10 - - - -
21/01:30pm 24.4 WSW 11 16 1016.7 - 0.0 - - 10 - - - -
21/01:00pm 24.8 SW 12 15 1017.3 - 0.0 - - 10 - - - -
21/12:30pm 24.6 SW 13 17 1017.6 - 0.0 - - 10 - - - -
21/12:00pm 23.8 SSW 15 17 1017.9 R 0.0 Fine Clear 40 - - - -
21/11:30am 23.7 SSW 14 18 1018.0 - 0.0 - - 10 - - - -
21/11:00am 23.2 SSW 14 17 1018.2 - 0.0 - - 10 - - - -
21/10:30am 24.3 SSW 13 16 1018.5 - 0.0 - - 10 - - - -
21/10:00am 23.2 SSW 12 15 1018.4 - 0.0 - - 10 - - - -
21/09:30am 23.1 SSW 12 15 1018.7 - 0.0 - - 10 - - - -
21/09:00am 22.7 SSW 12 15 1018.9 R 0.0 Fine Clear 40 - - - -
21/08:30am 22.7 SSW 11 14 1018.9 - 0.0 - - 10 - - - -
21/08:00am 22.1 S 10 12 1018.8 - 0.0 - - 10 - - - -
21/07:30am 21.1 S 8 10 1018.8 - 0.0 - - 10 - - - -
21/07:00am 20.2 SSE 7 9 1018.5 - 0.0 - - 10 - - - -
21/06:30am 18.7 SSE 6 7 1017.9 - 0.0 - - 10 - - - -
21/06:00am 17.3 S 7 9 1017.6 F 0.0 Fine Clear 40 - - - -
21/05:30am 17.6 S 8 9 1017.5 - 0.0 - - 10 - - - -
21/05:00am 18.0 SSE 8 10 1017.2 - 0.0 - - 10 - - - -
21/04:30am 18.5 S 9 10 1017.2 - 0.0 - - 10 - - - -
21/04:00am 18.9 S 10 12 1017.1 - 0.0 - - 10 - - - -
21/03:30am 19.3 S 11 14 1017.1 - 0.0 - - 10 - - - -
21/03:00am 19.2 S 11 13 1017.3 - 0.0 - - 10 - - - -
21/02:30am 19.4 S 11 14 1017.2 - 0.0 - - 10 - - - -
21/02:00am 19.6 S 11 13 1017.4 - 0.0 - - 10 - - - -
21/01:30am 19.8 S 11 14 1017.5 - 0.0 - - 10 - - - -
21/01:00am 19.9 S 12 14 1017.6 - 0.0 - - 10 - - - -
21/12:30am 19.9 S 12 17 1017.7 - 0.0 - - 10 - - - -
21/12:00am 20.0 S 13 17 1018.0 - 0.0 - - 10 - - - -
 
Date/Time
WST
Temp

°C
Wind Pressure Rain
since 9am
mm
Weather Cloud Vis
km
Sea
Height
m
Swell
Dir
 
Speed
knots
Gust
knots
hPa Trend Height
m
Period
s
Dir
20/11:30pm 20.3 S 15 19 1018.2 - 0.0 - - 10 - - - -
20/11:00pm 20.5 S 13 18 1018.3 - 0.0 - - 10 - - - -
20/10:30pm 20.7 S 15 21 1018.3 - 0.0 - - 10 - - - -
20/10:00pm 21.0 S 15 22 1018.3 - 0.0 - - 10 - - - -
20/09:30pm 21.4 S 18 23 1018.3 - 0.0 - - 10 - - - -
20/09:00pm 21.5 S 18 23 1018.1 - 0.0 - - 10 - - - -
20/08:30pm 21.6 S 16 23 1018.0 - 0.0 - - 10 - - - -
20/08:00pm 21.7 S 17 22 1017.8 - 0.0 - - 10 - - - -
20/07:30pm 21.9 SSW 17 22 1017.5 - 0.0 - - 10 - - - -
20/07:00pm 22.2 SSW 15 20 1017.2 - 0.0 - - 10 - - - -
20/06:30pm 21.9 SSW 16 20 1017.0 - 0.0 - - 10 - - - -
20/06:00pm 22.4 SSW 15 20 1016.8 - 0.0 - - 10 - - - -
20/05:30pm 22.8 SSW 16 20 1016.7 - 0.0 - - 10 - - - -
20/05:00pm 23.5 SSW 16 20 1016.5 - 0.0 - - 10 - - - -
20/04:30pm 24.3 SSW 16 21 1016.4 - 0.0 - - 10 - - - -
20/04:00pm 24.7 SSW 16 20 1016.2 - 0.0 - - 10 - - - -
20/03:30pm 24.5 SSW 16 20 1016.2 - 0.0 - - 10 - - - -
20/03:00pm 24.3 SSW 15 21 1016.2 F 0.0 Fine Mostly clear 40 - - - -
20/02:30pm 24.9 S 16 20 1016.4 - 0.0 - Mostly clear 10 - - - -
20/02:00pm 24.7 SSW 15 19 1016.7 - 0.0 - Mostly clear 10 - - - -
20/01:30pm 24.6 SSW 15 19 1017.2 - 0.0 - Mostly clear 10 - - - -
20/01:00pm 25.0 SSW 15 19 1017.5 - 0.0 - Mostly clear 10 - - - -
20/12:30pm 24.6 SSW 15 18 1017.6 - 0.0 - Mostly clear 10 - - - -
20/12:00pm 23.7 SSW 16 19 1018.0 R 0.0 Fine Mostly clear 40 - - - -
20/11:30am 24.0 SSW 16 19 1018.1 - 0.0 - Mostly clear 10 - - - -
20/11:00am 23.7 SSW 14 18 1018.3 - 0.0 - Mostly clear 10 - - - -
20/10:30am 23.9 SSW 14 18 1018.7 - 0.0 - Mostly clear 10 - - - -
20/10:00am 23.1 S 14 18 1018.7 - 0.0 - Mostly clear 10 - - - -
20/09:30am 23.5 S 9 13 1018.6 - 0.0 - Mostly clear 10 - - - -
20/09:00am 22.9 SSE 9 16 1018.6 R 0.0 Fine Mostly clear 35 - - - -
20/08:30am 22.1 SE 9 13 1018.5 - 0.0 - Mostly clear 10 - - - -
20/08:00am 21.5 SE 10 13 1018.3 - 0.0 - Mostly clear 10 - - - -
20/07:30am 20.6 ESE 9 11 1018.1 - 0.0 - Mostly clear 10 - - - -
20/07:00am 19.5 E 6 8 1017.8 - 0.0 - Mostly clear 10 - - - -
20/06:30am 16.6 E 4 6 1017.7 - 0.0 - Mostly clear 10 - - - -
20/06:00am 13.5 E 6 7 1017.3 R 0.0 Fine Mostly clear 40 - - - -
20/05:30am 13.5 E 5 6 1017.1 - 0.0 - - 10 - - - -
20/05:00am 13.8 ESE 6 7 1016.7 - 0.0 - - 10 - - - -
20/04:30am 14.0 SE 5 6 1016.5 - 0.0 - - 10 - - - -
20/04:00am 14.6 SE 6 7 1016.3 - 0.0 - - 10 - - - -
20/03:30am 15.3 SSE 5 6 1016.1 - 0.0 - Partly cloudy 10 - - - -
20/03:00am 15.7 SE 5 6 1015.9 - 0.0 - - 10 - - - -
20/02:30am 18.7 S 8 10 1015.9 - 0.0 - - 10 - - - -
20/02:00am 19.1 S 8 10 1015.8 - 0.0 - Partly cloudy 10 - - - -
20/01:30am 19.2 S 7 10 1015.9 - 0.0 - - 10 - - - -
20/01:00am 18.8 S 6 8 1016.1 - 0.0 - - 10 - - - -
20/12:30am 19.6 S 8 11 1016.3 - 0.0 - Partly cloudy 10 - - - -
20/12:00am 19.0 S 7 10 1016.4 - 0.0 - Mostly clear 10 - - - -
 
Date/Time
WST
Temp

°C
Wind Pressure Rain
since 9am
mm
Weather Cloud Vis
km
Sea
Height
m
Swell
Dir
 
Speed
knots
Gust
knots
hPa Trend Height
m
Period
s
Dir
19/11:30pm 19.4 S 6 8 1016.6 - 0.0 - Partly cloudy 10 - - - -
19/11:00pm 19.9 S 8 11 1016.4 - 0.0 - Partly cloudy 10 - - - -
19/10:30pm 20.0 SSW 7 10 1016.5 - 0.0 - Partly cloudy 10 - - - -
19/10:00pm 20.2 SSW 9 12 1016.7 - 0.0 - Partly cloudy 10 - - - -
19/09:30pm 20.4 SSW 9 11 1016.7 - 0.0 - Partly cloudy 10 - - - -
19/09:00pm 20.6 SSW 9 13 1016.5 - 0.0 - Cloudy 10 - - - -
19/08:30pm 20.5 SSW 10 13 1016.2 - 0.0 - Partly cloudy 10 - - - -
19/08:00pm 20.4 SW 9 13 1016.0 - 0.0 - Partly cloudy 10 - - - -
19/07:30pm 20.5 SW 10 14 1015.8 - 0.0 - - 10 - - - -
19/07:00pm 20.6 WSW 11 15 1015.4 - 0.0 - - 10 - - - -
19/06:30pm 20.8 SW 11 17 1015.1 - 0.0 - - 10 - - - -
19/06:00pm 21.4 WSW 14 19 1014.9 - 0.0 - Mostly clear 10 - - - -
19/05:30pm 22.2 WSW 15 20 1014.7 - 0.0 - - 10 - - - -
19/05:00pm 22.4 WSW 16 20 1014.6 - 0.0 - - 10 - - - -
19/04:30pm 22.2 WSW 14 19 1014.4 - 0.0 - Partly cloudy 10 - - - -
19/04:00pm 22.8 W 16 21 1014.1 - 0.0 - - 10 - - - -
19/03:30pm 23.2 W 15 21 1014.0 - 0.0 - - 10 - - - -
19/03:00pm 23.0 W 13 18 1014.0 - 0.0 - Cloudy 10 - - - -
19/02:30pm 23.0 WNW 16 23 1013.9 - 0.0 - Partly cloudy 10 - - - -
19/02:00pm 23.6 WNW 16 21 1014.2 - 0.0 - Partly cloudy 10 - - - -
19/01:30pm 22.8 WNW 15 19 1014.5 - 0.0 - Partly cloudy 10 - - - -
19/01:00pm 23.8 W 13 17 1014.5 - 0.0 - Partly cloudy 10 - - - -
19/12:30pm 23.1 WNW 16 23 1015.1 - 0.0 - Partly cloudy 10 - - - -
19/12:00pm 23.8 WNW 14 21 1015.1 - 0.0 - Cloudy 10 - - - -
19/11:30am 24.0 WNW 14 20 1015.2 - 0.0 - Partly cloudy 10 - - - -
19/11:00am 23.9 WNW 14 19 1015.4 - 0.0 - Partly cloudy 10 - - - -
19/10:30am 24.3 WNW 13 18 1015.5 - 0.0 - Partly cloudy 10 - - - -
19/10:00am 23.6 WNW 14 19 1015.6 - 0.0 - Partly cloudy 10 - - - -
19/09:30am 22.9 WNW 13 19 1015.6 - 0.0 - Partly cloudy 10 - - - -
19/09:00am 22.3 W 12 16 1015.7 - 1.2 - Mostly clear 10 - - - -
19/08:30am 21.9 W 11 15 1015.3 - 1.2 - Partly cloudy 10 - - - -
19/08:00am 21.2 W 11 15 1015.2 - 1.2 - - 10 - - - -
19/07:30am 20.9 W 10 14 1015.0 - 1.2 - - 10 - - - -
19/07:00am 20.6 W 11 14 1014.8 - 1.0 - Partly cloudy 10 - - - -
19/06:30am 20.1 W 11 16 1014.4 - 1.0 - - 10 - - - -
19/06:00am 19.8 W 9 14 1014.0 - 1.0 - Mostly clear 10 - - - -

Other Formats:

Comma delimited format used in spreadsheet applications
http://www.bom.gov.au/fwo/IDW60701/IDW60701.94300.axf

JavaScript Object Notation format (JSON) in row-major order
http://www.bom.gov.au/fwo/IDW60701/IDW60701.94300.json